Time;durP1;ratioP1;P1;durP2;ratioP2;P2;SDS_P1;SDS_P2;PMS_P1;PMS_P2;Temp;Humidity;BMP_temperature;BMP_pressure;BME280_temperature;BME280_humidity;BME280_pressure;Samples;Min_cycle;Max_cycle;Signal;HPM_P1;HPM_P2
2023/11/25 00:00:31;;;;;;;;;;;19.00;52.80;;;;;;1527547;76;794;-59
2023/11/25 00:02:33;;;;;;;;;;;19.10;53.00;;;;;;1513191;76;1060;-59
2023/11/25 00:04:35;;;;;;;;;;;19.10;53.00;;;;;;1513878;76;669;-62
2023/11/25 00:06:37;;;;;;;;;;;19.10;53.00;;;;;;1520353;76;1437;-59
2023/11/25 00:08:39;;;;;;;;;;;19.00;52.80;;;;;;1510971;76;714;-59
2023/11/25 00:10:40;;;;;;;;;;;19.00;52.80;;;;;;1520585;76;806;-60
2023/11/25 00:12:43;;;;;;;;;;;19.00;52.80;;;;;;1514227;76;1209;-60
2023/11/25 00:14:45;;;;;;;;;;;19.00;52.80;;;;;;1519354;76;1920;-59
2023/11/25 00:16:46;;;;;;;;;;;19.10;52.90;;;;;;1521017;76;755;-60
2023/11/25 00:18:48;;;;;;;;;;;19.00;52.90;;;;;;1522551;76;861;-59
2023/11/25 00:20:51;;;;;;;;;;;19.00;52.90;;;;;;1524656;76;771;-59
2023/11/25 00:22:53;;;;;;;;;;;19.10;53.00;;;;;;1523704;76;1159;-59
2023/11/25 00:24:56;;;;;;;;;;;19.00;52.80;;;;;;1517061;76;740;-59
2023/11/25 00:26:58;;;;;;;;;;;19.00;52.80;;;;;;1522650;76;735;-59
2023/11/25 00:29:00;;;;;;;;;;;19.00;52.90;;;;;;1515565;76;721;-59
2023/11/25 00:31:02;;;;;;;;;;;19.00;52.80;;;;;;1525083;76;749;-59
2023/11/25 00:33:04;;;;;;;;;;;19.10;52.80;;;;;;1520184;76;1193;-59
2023/11/25 00:35:07;;;;;;;;;;;19.00;52.80;;;;;;1516806;76;1938;-59
2023/11/25 00:37:09;;;;;;;;;;;19.00;52.80;;;;;;1523975;76;767;-60
2023/11/25 00:39:11;;;;;;;;;;;19.00;52.80;;;;;;1511381;76;719;-59
2023/11/25 00:41:13;;;;;;;;;;;19.00;52.80;;;;;;1513413;76;574;-61
2023/11/25 00:43:15;;;;;;;;;;;19.00;52.70;;;;;;1517087;76;1120;-59
2023/11/25 00:45:18;;;;;;;;;;;19.00;52.60;;;;;;1514800;76;697;-61
2023/11/25 00:47:22;;;;;;;;;;;19.00;52.70;;;;;;1516678;76;753;-60
2023/11/25 00:49:24;;;;;;;;;;;19.00;52.70;;;;;;1510198;76;1488;-60
2023/11/25 00:51:26;;;;;;;;;;;19.00;52.70;;;;;;1518236;76;703;-60
2023/11/25 00:53:28;;;;;;;;;;;19.00;52.60;;;;;;1521138;76;1086;-59
2023/11/25 00:55:30;;;;;;;;;;;19.00;52.60;;;;;;1522861;76;1919;-59
2023/11/25 00:57:32;;;;;;;;;;;19.00;52.50;;;;;;1519846;76;756;-59
2023/11/25 00:59:34;;;;;;;;;;;19.00;52.60;;;;;;1520718;76;782;-59
2023/11/25 01:01:36;;;;;;;;;;;19.00;52.40;;;;;;1510651;76;757;-59
2023/11/25 01:03:38;;;;;;;;;;;19.00;52.40;;;;;;1517306;76;1580;-60
2023/11/25 01:05:39;;;;;;;;;;;19.00;52.50;;;;;;1522422;76;753;-60
2023/11/25 01:07:41;;;;;;;;;;;19.00;52.40;;;;;;1521374;76;786;-60
2023/11/25 01:09:43;;;;;;;;;;;19.00;52.40;;;;;;1521590;76;781;-59
2023/11/25 01:11:47;;;;;;;;;;;19.10;52.50;;;;;;1519222;76;807;-60
2023/11/25 01:13:49;;;;;;;;;;;19.10;52.60;;;;;;1516821;76;1113;-59
2023/11/25 01:15:55;;;;;;;;;;;19.10;52.50;;;;;;1520668;76;1924;-60
2023/11/25 01:17:54;;;;;;;;;;;19.00;52.30;;;;;;1517427;76;1264;-60
2023/11/25 01:19:58;;;;;;;;;;;19.10;52.40;;;;;;1520193;76;748;-60
2023/11/25 01:22:00;;;;;;;;;;;19.10;52.40;;;;;;1516472;76;1087;-60
2023/11/25 01:24:01;;;;;;;;;;;19.10;52.30;;;;;;1508750;76;732;-59
2023/11/25 01:26:04;;;;;;;;;;;19.00;52.20;;;;;;1518647;76;851;-59
2023/11/25 01:28:06;;;;;;;;;;;19.10;52.30;;;;;;1527020;76;739;-59
2023/11/25 01:30:08;;;;;;;;;;;19.10;52.30;;;;;;1511319;76;736;-60
2023/11/25 01:32:10;;;;;;;;;;;19.10;52.20;;;;;;1504276;76;1159;-60
2023/11/25 01:34:12;;;;;;;;;;;19.00;52.10;;;;;;1517439;76;742;-59
2023/11/25 01:36:14;;;;;;;;;;;19.10;52.10;;;;;;1503219;76;1922;-59
2023/11/25 01:38:16;;;;;;;;;;;19.00;52.10;;;;;;1519246;76;679;-59
2023/11/25 01:40:17;;;;;;;;;;;19.10;52.20;;;;;;1516983;76;775;-59
2023/11/25 01:42:19;;;;;;;;;;;19.10;52.30;;;;;;1510460;76;1099;-59
2023/11/25 01:44:22;;;;;;;;;;;19.10;52.20;;;;;;1512762;76;839;-59
2023/11/25 01:46:31;;;;;;;;;;;19.10;52.10;;;;;;1508619;76;739;-60
2023/11/25 01:48:33;;;;;;;;;;;19.10;52.10;;;;;;1503938;76;1662;-60
2023/11/25 01:50:36;;;;;;;;;;;19.10;52.20;;;;;;1517160;76;738;-60
2023/11/25 01:52:38;;;;;;;;;;;19.00;52.10;;;;;;1524909;76;1096;-60
2023/11/25 01:54:40;;;;;;;;;;;19.10;52.10;;;;;;1518099;76;748;-61
2023/11/25 01:56:42;;;;;;;;;;;19.00;52.10;;;;;;1519013;76;1949;-60
2023/11/25 01:58:44;;;;;;;;;;;19.10;52.10;;;;;;1511924;76;705;-59
2023/11/25 02:00:47;;;;;;;;;;;19.00;52.00;;;;;;1514778;76;1310;-58
2023/11/25 02:02:49;;;;;;;;;;;19.10;52.10;;;;;;1520193;76;1141;-59
2023/11/25 02:04:52;;;;;;;;;;;19.10;52.10;;;;;;1505865;77;692;-60
2023/11/25 02:06:54;;;;;;;;;;;19.00;52.00;;;;;;1510589;76;706;-59
2023/11/25 02:08:55;;;;;;;;;;;19.10;52.10;;;;;;1522007;76;681;-60
2023/11/25 02:10:57;;;;;;;;;;;19.00;52.00;;;;;;1514442;76;764;-59
2023/11/25 02:13:01;;;;;;;;;;;19.10;52.00;;;;;;1510437;76;1152;-59
2023/11/25 02:15:03;;;;;;;;;;;19.10;52.10;;;;;;1516105;76;1640;-58
2023/11/25 02:17:05;;;;;;;;;;;19.00;51.90;;;;;;1519131;76;1940;-60
2023/11/25 02:19:07;;;;;;;;;;;19.00;52.00;;;;;;1511817;76;851;-61
2023/11/25 02:21:10;;;;;;;;;;;19.10;52.10;;;;;;1521174;76;763;-61
2023/11/25 02:23:19;;;;;;;;;;;19.10;52.10;;;;;;1520922;76;1080;-59
2023/11/25 02:25:21;;;;;;;;;;;19.10;52.10;;;;;;1508521;76;1011;-59
2023/11/25 02:27:25;;;;;;;;;;;19.00;51.90;;;;;;1508550;76;745;-59
2023/11/25 02:29:27;;;;;;;;;;;19.00;51.90;;;;;;1501962;76;855;-59
2023/11/25 02:31:29;;;;;;;;;;;19.10;52.10;;;;;;1523288;76;795;-60
2023/11/25 02:33:34;;;;;;;;;;;19.10;52.10;;;;;;1518089;76;1122;-60
2023/11/25 02:35:36;;;;;;;;;;;19.00;52.00;;;;;;1509463;76;1939;-60
2023/11/25 02:37:38;;;;;;;;;;;19.00;51.90;;;;;;1505207;76;792;-59
2023/11/25 02:39:40;;;;;;;;;;;19.00;51.90;;;;;;1521740;76;793;-59
2023/11/25 02:41:42;;;;;;;;;;;19.00;51.90;;;;;;1515847;76;683;-60
2023/11/25 02:43:46;;;;;;;;;;;19.00;52.00;;;;;;1508797;76;1123;-60
2023/11/25 02:45:48;;;;;;;;;;;19.00;51.90;;;;;;1506188;76;731;-60
2023/11/25 02:47:50;;;;;;;;;;;19.10;52.10;;;;;;1522998;76;697;-59
2023/11/25 02:49:52;;;;;;;;;;;19.00;52.00;;;;;;1517585;76;724;-60
2023/11/25 02:51:58;;;;;;;;;;;19.00;52.00;;;;;;1519386;76;678;-60
2023/11/25 02:54:00;;;;;;;;;;;19.00;51.90;;;;;;1514066;76;693;-59
2023/11/25 02:56:02;;;;;;;;;;;19.20;52.10;;;;;;1518235;76;1922;-59
2023/11/25 02:58:04;;;;;;;;;;;19.00;51.90;;;;;;1520145;76;744;-60
2023/11/25 03:00:16;;;;;;;;;;;19.00;51.90;;;;;;1515753;76;718;-59
2023/11/25 03:02:13;;;;;;;;;;;19.00;51.90;;;;;;1508652;76;1586;-59
2023/11/25 03:04:16;;;;;;;;;;;19.00;52.00;;;;;;1508852;76;1649;-60
2023/11/25 03:06:22;;;;;;;;;;;19.00;51.90;;;;;;1517943;76;1378;-60
2023/11/25 03:08:27;;;;;;;;;;;19.00;51.80;;;;;;1526074;76;2005;-59
2023/11/25 03:10:25;;;;;;;;;;;19.00;51.90;;;;;;1522776;76;1406;-59
2023/11/25 03:12:27;;;;;;;;;;;19.00;51.90;;;;;;1516073;76;1131;-59
2023/11/25 03:14:29;;;;;;;;;;;19.10;52.00;;;;;;1508885;76;724;-59
2023/11/25 03:16:32;;;;;;;;;;;19.10;51.90;;;;;;1506780;76;1934;-60
2023/11/25 03:18:34;;;;;;;;;;;19.00;51.80;;;;;;1524035;76;790;-59
2023/11/25 03:20:36;;;;;;;;;;;19.00;51.80;;;;;;1514437;76;685;-59
2023/11/25 03:22:37;;;;;;;;;;;19.00;51.80;;;;;;1516566;76;1146;-60
2023/11/25 03:24:41;;;;;;;;;;;19.00;51.80;;;;;;1510342;76;756;-59
2023/11/25 03:26:45;;;;;;;;;;;19.00;51.80;;;;;;1508908;76;741;-59
2023/11/25 03:28:48;;;;;;;;;;;19.00;51.80;;;;;;1516967;76;737;-59
2023/11/25 03:30:50;;;;;;;;;;;19.00;51.80;;;;;;1518479;76;935;-59
2023/11/25 03:32:52;;;;;;;;;;;19.00;51.80;;;;;;1511715;76;1178;-58
2023/11/25 03:34:58;;;;;;;;;;;19.00;51.80;;;;;;1515592;76;789;-58
2023/11/25 03:37:00;;;;;;;;;;;19.00;51.80;;;;;;1515320;76;1906;-58
2023/11/25 03:39:05;;;;;;;;;;;19.00;51.80;;;;;;1516363;76;816;-59
2023/11/25 03:41:06;;;;;;;;;;;19.00;51.80;;;;;;1522357;76;1496;-59
2023/11/25 03:43:08;;;;;;;;;;;19.00;51.80;;;;;;1508828;76;1157;-59
2023/11/25 03:45:12;;;;;;;;;;;18.90;51.80;;;;;;1518044;76;800;-60
2023/11/25 03:47:14;;;;;;;;;;;18.90;51.80;;;;;;1521104;76;719;-60
2023/11/25 03:49:16;;;;;;;;;;;19.00;51.80;;;;;;1516671;76;736;-60
2023/11/25 03:51:17;;;;;;;;;;;19.00;51.90;;;;;;1516351;76;732;-60
2023/11/25 03:53:19;;;;;;;;;;;19.00;51.90;;;;;;1518332;76;1388;-59
2023/11/25 03:55:21;;;;;;;;;;;18.90;51.80;;;;;;1518673;76;666;-59
2023/11/25 03:57:24;;;;;;;;;;;19.00;51.80;;;;;;1509139;76;1926;-60
2023/11/25 03:59:26;;;;;;;;;;;19.00;51.80;;;;;;1518206;76;722;-59
2023/11/25 04:01:27;;;;;;;;;;;19.00;51.80;;;;;;1518000;76;740;-59
2023/11/25 04:03:29;;;;;;;;;;;19.00;51.80;;;;;;1518688;76;1129;-59
2023/11/25 04:05:32;;;;;;;;;;;19.00;51.80;;;;;;1514565;76;604;-59
2023/11/25 04:07:34;;;;;;;;;;;18.90;51.80;;;;;;1516874;76;739;-59
2023/11/25 04:09:36;;;;;;;;;;;19.00;51.70;;;;;;1517738;76;728;-59
2023/11/25 04:11:39;;;;;;;;;;;19.00;51.70;;;;;;1517319;76;699;-59
2023/11/25 04:13:41;;;;;;;;;;;19.00;51.80;;;;;;1515431;76;1118;-59
2023/11/25 04:15:43;;;;;;;;;;;19.00;51.80;;;;;;1513294;76;729;-60
2023/11/25 04:17:45;;;;;;;;;;;19.00;51.80;;;;;;1511984;76;1924;-60
2023/11/25 04:19:47;;;;;;;;;;;19.00;51.80;;;;;;1519179;76;769;-60
2023/11/25 04:21:53;;;;;;;;;;;19.00;51.80;;;;;;1504265;76;870;-58
2023/11/25 04:23:57;;;;;;;;;;;19.00;51.80;;;;;;1515947;75;1148;-59
2023/11/25 04:25:59;;;;;;;;;;;19.00;51.80;;;;;;1506696;76;736;-59
2023/11/25 04:28:01;;;;;;;;;;;19.00;51.80;;;;;;1512402;76;769;-59
2023/11/25 04:30:05;;;;;;;;;;;19.00;51.80;;;;;;1517932;76;663;-59
2023/11/25 04:32:08;;;;;;;;;;;18.90;51.80;;;;;;1516965;76;1185;-57
2023/11/25 04:34:10;;;;;;;;;;;19.00;51.80;;;;;;1516366;76;719;-58
2023/11/25 04:36:14;;;;;;;;;;;18.90;51.80;;;;;;1517755;76;1928;-59
2023/11/25 04:38:16;;;;;;;;;;;19.00;51.70;;;;;;1522047;76;771;-59
2023/11/25 04:40:18;;;;;;;;;;;19.00;51.80;;;;;;1518562;76;742;-60
2023/11/25 04:42:20;;;;;;;;;;;19.00;51.90;;;;;;1516943;76;1131;-60
2023/11/25 04:44:22;;;;;;;;;;;19.00;51.80;;;;;;1521602;76;665;-59
2023/11/25 04:46:23;;;;;;;;;;;19.00;51.80;;;;;;1513406;76;740;-59
2023/11/25 04:48:25;;;;;;;;;;;19.00;51.80;;;;;;1511745;76;1493;-59
2023/11/25 04:50:28;;;;;;;;;;;19.00;51.80;;;;;;1521693;76;783;-59
2023/11/25 04:52:30;;;;;;;;;;;18.90;51.80;;;;;;1517413;76;1140;-59
2023/11/25 04:54:32;;;;;;;;;;;19.00;51.80;;;;;;1516087;76;723;-57
2023/11/25 04:56:35;;;;;;;;;;;18.90;51.80;;;;;;1517877;76;1936;-59
2023/11/25 04:58:38;;;;;;;;;;;18.90;51.80;;;;;;1508738;76;761;-58
2023/11/25 05:00:40;;;;;;;;;;;19.00;51.80;;;;;;1508914;76;1677;-60
2023/11/25 05:02:42;;;;;;;;;;;18.90;51.90;;;;;;1512858;76;1107;-60
2023/11/25 05:04:44;;;;;;;;;;;19.00;51.90;;;;;;1503464;76;794;-59
2023/11/25 05:06:46;;;;;;;;;;;19.00;51.90;;;;;;1517672;76;677;-60
2023/11/25 05:08:48;;;;;;;;;;;18.90;51.90;;;;;;1518731;76;798;-59
2023/11/25 05:10:50;;;;;;;;;;;18.90;51.80;;;;;;1524601;76;759;-60
2023/11/25 05:12:52;;;;;;;;;;;19.00;51.90;;;;;;1521410;76;1142;-60
2023/11/25 05:14:53;;;;;;;;;;;18.90;51.90;;;;;;1517984;76;909;-60
2023/11/25 05:16:56;;;;;;;;;;;19.00;51.90;;;;;;1509017;76;1922;-59
2023/11/25 05:18:58;;;;;;;;;;;19.00;51.80;;;;;;1515858;76;705;-61
2023/11/25 05:21:02;;;;;;;;;;;18.90;51.90;;;;;;1516608;76;702;-59
2023/11/25 05:23:04;;;;;;;;;;;19.00;51.90;;;;;;1516230;76;1155;-59
2023/11/25 05:25:13;;;;;;;;;;;19.00;51.90;;;;;;1516833;76;791;-59
2023/11/25 05:27:15;;;;;;;;;;;18.90;51.90;;;;;;1506511;76;718;-59
2023/11/25 05:29:17;;;;;;;;;;;18.90;52.00;;;;;;1515740;76;679;-60
2023/11/25 05:31:19;;;;;;;;;;;19.00;51.90;;;;;;1518582;76;686;-59
2023/11/25 05:33:21;;;;;;;;;;;19.00;52.00;;;;;;1510386;76;1186;-58
2023/11/25 05:35:23;;;;;;;;;;;18.90;52.10;;;;;;1516006;76;739;-58
2023/11/25 05:37:25;;;;;;;;;;;19.00;51.90;;;;;;1509890;76;1940;-59
2023/11/25 05:39:28;;;;;;;;;;;19.00;52.00;;;;;;1514685;76;688;-59
2023/11/25 05:41:30;;;;;;;;;;;19.00;51.90;;;;;;1508495;76;811;-61
2023/11/25 05:43:32;;;;;;;;;;;18.90;52.00;;;;;;1510882;76;1084;-60
2023/11/25 05:45:34;;;;;;;;;;;18.90;52.00;;;;;;1513119;76;1558;-60
2023/11/25 05:47:36;;;;;;;;;;;19.00;52.10;;;;;;1516062;76;728;-60
2023/11/25 05:49:37;;;;;;;;;;;18.90;52.00;;;;;;1525820;76;791;-60
2023/11/25 05:51:42;;;;;;;;;;;18.90;52.00;;;;;;1503716;77;1219;-60
2023/11/25 05:53:43;;;;;;;;;;;18.90;52.00;;;;;;1509929;76;1707;-60
2023/11/25 05:55:45;;;;;;;;;;;18.90;52.00;;;;;;1514487;76;693;-61
2023/11/25 05:57:50;;;;;;;;;;;18.90;52.00;;;;;;1523637;76;1945;-60
2023/11/25 05:59:50;;;;;;;;;;;18.90;51.90;;;;;;1517397;76;1535;-60
2023/11/25 06:01:53;;;;;;;;;;;19.00;52.00;;;;;;1512706;76;701;-60
2023/11/25 06:03:54;;;;;;;;;;;18.90;51.90;;;;;;1512164;76;1071;-60
2023/11/25 06:05:56;;;;;;;;;;;19.00;52.00;;;;;;1521814;76;807;-58
2023/11/25 06:07:58;;;;;;;;;;;18.90;51.90;;;;;;1507768;76;752;-60
2023/11/25 06:10:00;;;;;;;;;;;18.90;52.00;;;;;;1520996;76;707;-58
2023/11/25 06:12:02;;;;;;;;;;;19.00;51.90;;;;;;1508573;76;1093;-59
2023/11/25 06:14:04;;;;;;;;;;;18.90;51.90;;;;;;1510739;76;799;-59
2023/11/25 06:16:06;;;;;;;;;;;19.00;51.80;;;;;;1511857;76;701;-58
2023/11/25 06:18:08;;;;;;;;;;;19.00;51.90;;;;;;1506225;76;1926;-59
2023/11/25 06:20:10;;;;;;;;;;;19.00;51.80;;;;;;1517718;76;737;-60
2023/11/25 06:22:12;;;;;;;;;;;19.00;51.80;;;;;;1519165;76;1140;-59
2023/11/25 06:24:15;;;;;;;;;;;19.00;51.80;;;;;;1521557;76;739;-60
2023/11/25 06:26:17;;;;;;;;;;;19.00;51.80;;;;;;1510076;76;769;-60
2023/11/25 06:28:23;;;;;;;;;;;19.00;51.80;;;;;;1516594;76;698;-59
2023/11/25 06:30:22;;;;;;;;;;;19.10;51.90;;;;;;1514461;76;1511;-57
2023/11/25 06:32:27;;;;;;;;;;;19.00;51.80;;;;;;1507765;76;1156;-58
2023/11/25 06:34:28;;;;;;;;;;;19.00;51.80;;;;;;1521431;76;1505;-61
2023/11/25 06:36:30;;;;;;;;;;;19.00;51.80;;;;;;1512095;76;675;-59
2023/11/25 06:38:33;;;;;;;;;;;19.10;51.90;;;;;;1519425;76;1915;-59
2023/11/25 06:40:37;;;;;;;;;;;19.10;51.90;;;;;;1514660;76;1519;-59
2023/11/25 06:42:39;;;;;;;;;;;19.10;51.80;;;;;;1522625;76;1126;-58
2023/11/25 06:44:43;;;;;;;;;;;19.00;51.70;;;;;;1519466;76;734;-59
2023/11/25 06:46:44;;;;;;;;;;;19.00;51.80;;;;;;1513007;76;1726;-60
2023/11/25 06:48:47;;;;;;;;;;;19.10;51.80;;;;;;1516252;76;684;-59
2023/11/25 06:50:48;;;;;;;;;;;19.00;51.70;;;;;;1521070;76;859;-60
2023/11/25 06:52:50;;;;;;;;;;;19.10;51.90;;;;;;1513194;76;1126;-59
2023/11/25 06:54:52;;;;;;;;;;;19.10;51.90;;;;;;1513070;76;781;-59
2023/11/25 06:56:54;;;;;;;;;;;19.10;51.90;;;;;;1518161;76;1885;-59
2023/11/25 06:58:56;;;;;;;;;;;19.00;51.70;;;;;;1518985;76;721;-59
2023/11/25 07:01:00;;;;;;;;;;;19.00;51.80;;;;;;1514046;76;740;-59
2023/11/25 07:03:01;;;;;;;;;;;19.00;51.80;;;;;;1512994;76;1660;-60
2023/11/25 07:05:04;;;;;;;;;;;19.10;51.80;;;;;;1515482;76;745;-59
2023/11/25 07:07:06;;;;;;;;;;;19.00;51.80;;;;;;1514351;76;697;-60
2023/11/25 07:09:09;;;;;;;;;;;19.10;51.90;;;;;;1509325;76;800;-60
2023/11/25 07:11:13;;;;;;;;;;;19.00;51.70;;;;;;1511818;76;713;-61
2023/11/25 07:13:14;;;;;;;;;;;19.10;51.90;;;;;;1513021;76;1430;-59
2023/11/25 07:15:16;;;;;;;;;;;19.10;52.00;;;;;;1516412;76;806;-61
2023/11/25 07:17:18;;;;;;;;;;;19.10;51.90;;;;;;1523513;76;1910;-60
2023/11/25 07:19:20;;;;;;;;;;;19.00;51.70;;;;;;1520468;76;762;-61
2023/11/25 07:21:24;;;;;;;;;;;19.10;51.90;;;;;;1511837;76;863;-58
2023/11/25 07:23:25;;;;;;;;;;;19.00;51.80;;;;;;1513267;76;1106;-60
2023/11/25 07:25:29;;;;;;;;;;;19.10;51.90;;;;;;1509367;76;724;-60
2023/11/25 07:27:31;;;;;;;;;;;19.00;51.80;;;;;;1511108;76;776;-61
2023/11/25 07:29:35;;;;;;;;;;;19.10;51.80;;;;;;1517399;76;707;-60
2023/11/25 07:31:37;;;;;;;;;;;19.10;51.90;;;;;;1522511;76;766;-61
2023/11/25 07:33:39;;;;;;;;;;;19.10;51.80;;;;;;1512531;76;1154;-60
2023/11/25 07:35:41;;;;;;;;;;;19.00;51.70;;;;;;1515885;76;736;-61
2023/11/25 07:37:43;;;;;;;;;;;19.00;51.80;;;;;;1522351;76;1941;-61
2023/11/25 07:39:45;;;;;;;;;;;19.10;51.80;;;;;;1506096;76;779;-60
2023/11/25 07:41:47;;;;;;;;;;;19.10;51.90;;;;;;1506950;76;714;-61
2023/11/25 07:43:51;;;;;;;;;;;19.10;51.90;;;;;;1503709;76;1076;-60
2023/11/25 07:45:53;;;;;;;;;;;19.00;51.80;;;;;;1511650;76;2028;-61
2023/11/25 07:47:55;;;;;;;;;;;19.00;51.80;;;;;;1510024;76;781;-60
2023/11/25 07:49:57;;;;;;;;;;;19.10;51.90;;;;;;1512580;76;766;-62
2023/11/25 07:51:59;;;;;;;;;;;19.10;51.90;;;;;;1527287;76;753;-60
2023/11/25 07:54:01;;;;;;;;;;;19.10;51.80;;;;;;1508644;76;795;-59
2023/11/25 07:56:03;;;;;;;;;;;19.00;51.70;;;;;;1510189;76;793;-60
2023/11/25 07:58:05;;;;;;;;;;;19.00;51.70;;;;;;1517398;76;2058;-61
2023/11/25 08:00:07;;;;;;;;;;;19.10;51.80;;;;;;1521687;76;774;-60
2023/11/25 08:02:09;;;;;;;;;;;19.00;51.80;;;;;;1517902;76;1141;-61
2023/11/25 08:04:11;;;;;;;;;;;19.00;51.70;;;;;;1514378;76;813;-61
2023/11/25 08:06:15;;;;;;;;;;;19.10;51.90;;;;;;1517321;76;714;-59
2023/11/25 08:08:17;;;;;;;;;;;19.00;51.80;;;;;;1520773;76;2068;-59
2023/11/25 08:10:20;;;;;;;;;;;19.00;51.70;;;;;;1522647;76;725;-60
2023/11/25 08:12:22;;;;;;;;;;;19.00;51.80;;;;;;1518170;76;1090;-61
2023/11/25 08:14:24;;;;;;;;;;;19.00;51.80;;;;;;1518526;76;675;-61
2023/11/25 08:16:26;;;;;;;;;;;19.00;51.70;;;;;;1512082;76;780;-61
2023/11/25 08:18:28;;;;;;;;;;;19.10;51.90;;;;;;1518694;76;1940;-60
2023/11/25 08:20:29;;;;;;;;;;;19.00;51.70;;;;;;1514872;76;776;-61
2023/11/25 08:22:31;;;;;;;;;;;19.00;51.80;;;;;;1519654;76;1166;-60
2023/11/25 08:24:34;;;;;;;;;;;19.00;51.70;;;;;;1510329;76;714;-61
2023/11/25 08:26:36;;;;;;;;;;;19.00;51.70;;;;;;1519710;76;737;-61
2023/11/25 08:28:38;;;;;;;;;;;19.00;51.70;;;;;;1518941;76;729;-61
2023/11/25 08:30:40;;;;;;;;;;;19.00;51.70;;;;;;1519350;76;953;-61
2023/11/25 08:32:42;;;;;;;;;;;19.00;51.80;;;;;;1520654;76;1531;-60
2023/11/25 08:34:44;;;;;;;;;;;19.00;51.70;;;;;;1515449;76;794;-60
2023/11/25 08:36:52;;;;;;;;;;;19.00;51.80;;;;;;1519470;76;671;-60
2023/11/25 08:38:51;;;;;;;;;;;19.00;51.70;;;;;;1510941;76;1922;-58
2023/11/25 08:40:53;;;;;;;;;;;19.00;51.70;;;;;;1518625;76;1989;-60
2023/11/25 08:42:56;;;;;;;;;;;19.00;51.70;;;;;;1515482;76;1122;-60
2023/11/25 08:45:01;;;;;;;;;;;19.00;51.70;;;;;;1520822;76;566;-61
2023/11/25 08:47:01;;;;;;;;;;;19.00;51.70;;;;;;1516759;76;1330;-60
2023/11/25 08:49:04;;;;;;;;;;;19.00;51.80;;;;;;1510983;76;730;-61
2023/11/25 08:51:10;;;;;;;;;;;19.00;51.70;;;;;;1524641;76;728;-60
2023/11/25 08:53:10;;;;;;;;;;;18.90;51.70;;;;;;1520322;76;1553;-60
2023/11/25 08:55:13;;;;;;;;;;;19.00;51.60;;;;;;1513143;76;761;-62
2023/11/25 08:57:16;;;;;;;;;;;19.00;51.80;;;;;;1518240;76;691;-62
2023/11/25 08:59:20;;;;;;;;;;;19.00;51.70;;;;;;1516976;76;1922;-60
2023/11/25 09:01:24;;;;;;;;;;;19.00;51.70;;;;;;1523098;76;818;-60
2023/11/25 09:03:25;;;;;;;;;;;19.00;51.60;;;;;;1516364;76;1690;-60
2023/11/25 09:05:28;;;;;;;;;;;18.90;51.70;;;;;;1513168;76;793;-59
2023/11/25 09:07:30;;;;;;;;;;;19.00;51.70;;;;;;1505182;76;691;-60
2023/11/25 09:09:32;;;;;;;;;;;19.00;51.70;;;;;;1513680;76;762;-60
2023/11/25 09:11:34;;;;;;;;;;;19.00;51.80;;;;;;1521193;76;781;-60
2023/11/25 09:13:36;;;;;;;;;;;19.00;51.70;;;;;;1526913;75;1089;-60
2023/11/25 09:15:39;;;;;;;;;;;19.00;51.70;;;;;;1515689;76;790;-61
2023/11/25 09:17:41;;;;;;;;;;;19.00;51.70;;;;;;1513699;76;1153;-61
2023/11/25 09:19:44;;;;;;;;;;;18.90;51.80;;;;;;1510895;76;1918;-61
2023/11/25 09:21:46;;;;;;;;;;;19.00;51.70;;;;;;1509456;76;717;-60
2023/11/25 09:23:48;;;;;;;;;;;19.00;51.80;;;;;;1520015;76;1138;-61
2023/11/25 09:25:49;;;;;;;;;;;19.00;51.70;;;;;;1521990;76;740;-60
2023/11/25 09:27:52;;;;;;;;;;;19.00;51.80;;;;;;1513578;76;703;-59
2023/11/25 09:29:54;;;;;;;;;;;19.00;51.80;;;;;;1520248;76;1301;-59
2023/11/25 09:31:56;;;;;;;;;;;19.00;51.80;;;;;;1522119;76;742;-60
2023/11/25 09:33:59;;;;;;;;;;;18.90;51.80;;;;;;1516595;76;1139;-60
2023/11/25 09:36:02;;;;;;;;;;;19.00;51.80;;;;;;1510587;76;743;-60
2023/11/25 09:38:03;;;;;;;;;;;19.00;51.70;;;;;;1517218;76;1932;-60
2023/11/25 09:40:06;;;;;;;;;;;19.00;51.70;;;;;;1520562;76;815;-60
2023/11/25 09:42:08;;;;;;;;;;;19.00;51.80;;;;;;1517399;76;1181;-61
2023/11/25 09:44:10;;;;;;;;;;;19.00;51.80;;;;;;1512693;76;724;-60
2023/11/25 09:46:13;;;;;;;;;;;19.00;51.80;;;;;;1522280;76;749;-60
2023/11/25 09:48:15;;;;;;;;;;;19.00;51.80;;;;;;1518985;76;795;-61
2023/11/25 09:50:17;;;;;;;;;;;18.90;51.70;;;;;;1514865;76;835;-61
2023/11/25 09:52:19;;;;;;;;;;;19.00;51.70;;;;;;1517968;76;1130;-60
2023/11/25 09:54:24;;;;;;;;;;;18.90;51.70;;;;;;1523527;76;779;-61
2023/11/25 09:56:26;;;;;;;;;;;19.00;51.80;;;;;;1510906;76;688;-60
2023/11/25 09:58:28;;;;;;;;;;;19.00;51.80;;;;;;1522934;76;1944;-60
2023/11/25 10:00:30;;;;;;;;;;;19.00;51.80;;;;;;1519526;76;695;-59
2023/11/25 10:02:32;;;;;;;;;;;19.00;51.80;;;;;;1511780;76;1082;-59
2023/11/25 10:04:34;;;;;;;;;;;18.90;51.70;;;;;;1519842;76;778;-60
2023/11/25 10:06:37;;;;;;;;;;;19.00;51.70;;;;;;1515970;76;824;-60
2023/11/25 10:08:39;;;;;;;;;;;19.00;51.70;;;;;;1516394;76;721;-60
2023/11/25 10:10:41;;;;;;;;;;;18.90;51.70;;;;;;1515001;76;1113;-60
2023/11/25 10:12:43;;;;;;;;;;;18.90;51.70;;;;;;1513883;76;1104;-61
2023/11/25 10:14:45;;;;;;;;;;;18.90;51.70;;;;;;1512703;76;750;-60
2023/11/25 10:16:46;;;;;;;;;;;18.90;51.70;;;;;;1508916;76;728;-60
2023/11/25 10:18:48;;;;;;;;;;;19.00;51.80;;;;;;1517025;76;1946;-60
2023/11/25 10:20:57;;;;;;;;;;;19.00;51.80;;;;;;1515515;76;662;-60
2023/11/25 10:22:56;;;;;;;;;;;19.00;51.70;;;;;;1508338;76;1539;-60
2023/11/25 10:24:57;;;;;;;;;;;18.90;51.80;;;;;;1514245;76;1674;-60
2023/11/25 10:27:00;;;;;;;;;;;18.90;51.80;;;;;;1520991;76;1674;-59
2023/11/25 10:29:03;;;;;;;;;;;19.00;51.70;;;;;;1515609;76;783;-60
2023/11/25 10:31:05;;;;;;;;;;;18.90;51.80;;;;;;1507808;76;694;-60
2023/11/25 10:33:07;;;;;;;;;;;19.00;51.70;;;;;;1508074;76;1091;-60
2023/11/25 10:35:09;;;;;;;;;;;18.90;51.80;;;;;;1507917;76;755;-59
2023/11/25 10:37:11;;;;;;;;;;;18.90;51.70;;;;;;1506120;76;693;-60
2023/11/25 10:39:17;;;;;;;;;;;18.90;51.70;;;;;;1520838;76;1952;-61
2023/11/25 10:41:16;;;;;;;;;;;18.90;51.80;;;;;;1513609;76;1974;-60
2023/11/25 10:43:18;;;;;;;;;;;18.90;51.80;;;;;;1519458;76;1118;-59
2023/11/25 10:45:23;;;;;;;;;;;18.90;51.80;;;;;;1517133;76;720;-60
2023/11/25 10:47:32;;;;;;;;;;;18.90;51.80;;;;;;1506070;76;765;-59
2023/11/25 10:49:36;;;;;;;;;;;18.90;51.80;;;;;;1521032;76;748;-60
2023/11/25 10:51:38;;;;;;;;;;;18.90;51.70;;;;;;1514111;76;773;-60
2023/11/25 10:53:41;;;;;;;;;;;18.90;51.70;;;;;;1519934;76;1075;-59
2023/11/25 10:55:43;;;;;;;;;;;18.90;51.70;;;;;;1511666;76;748;-59
2023/11/25 10:57:45;;;;;;;;;;;18.90;51.80;;;;;;1514550;76;833;-61
2023/11/25 10:59:47;;;;;;;;;;;18.90;51.80;;;;;;1506464;76;1937;-59
2023/11/25 11:01:49;;;;;;;;;;;18.90;51.70;;;;;;1519453;76;848;-60
2023/11/25 11:04:09;;;;;;;;;;;18.90;51.80;;;;;;1509987;76;1226;-60
2023/11/25 11:06:11;;;;;;;;;;;18.90;51.70;;;;;;1517486;76;723;-60
2023/11/25 11:08:17;;;;;;;;;;;18.90;51.80;;;;;;1515644;76;802;-60
2023/11/25 11:10:21;;;;;;;;;;;18.90;51.60;;;;;;1513522;76;734;-60
2023/11/25 11:12:30;;;;;;;;;;;18.90;51.80;;;;;;1519642;76;1090;-60
2023/11/25 11:14:34;;;;;;;;;;;18.90;51.60;;;;;;1516266;76;710;-61
2023/11/25 11:16:52;;;;;;;;;;;18.90;51.70;;;;;;1511454;76;769;-61
2023/11/25 11:18:54;;;;;;;;;;;18.90;51.60;;;;;;1521438;76;1911;-61
2023/11/25 11:20:56;;;;;;;;;;;18.90;51.70;;;;;;1532398;76;736;-59
2023/11/25 11:22:58;;;;;;;;;;;18.90;51.60;;;;;;1523086;76;1355;-60
2023/11/25 11:25:04;;;;;;;;;;;18.90;51.70;;;;;;1516582;76;746;-59
2023/11/25 11:27:10;;;;;;;;;;;18.90;51.70;;;;;;1521110;76;789;-59
2023/11/25 11:29:13;;;;;;;;;;;18.90;51.70;;;;;;1515857;76;1715;-60
2023/11/25 11:31:32;;;;;;;;;;;18.90;51.60;;;;;;1511341;76;1963;-61
2023/11/25 11:33:35;;;;;;;;;;;18.80;51.50;;;;;;1514397;76;1071;-60
2023/11/25 11:35:40;;;;;;;;;;;18.90;51.70;;;;;;1515039;76;736;-60
2023/11/25 11:37:44;;;;;;;;;;;18.90;51.70;;;;;;1513813;76;898;-61
2023/11/25 11:39:50;;;;;;;;;;;18.90;51.70;;;;;;1515200;76;2218;-60
2023/11/25 11:41:52;;;;;;;;;;;18.90;51.60;;;;;;1520058;76;743;-60
2023/11/25 11:44:01;;;;;;;;;;;18.90;51.60;;;;;;1519309;76;1131;-59
2023/11/25 11:46:04;;;;;;;;;;;18.90;51.70;;;;;;1516781;76;694;-60
2023/11/25 11:48:06;;;;;;;;;;;18.90;51.60;;;;;;1509484;76;787;-60
2023/11/25 11:50:10;;;;;;;;;;;18.90;51.60;;;;;;1504829;77;1202;-61
2023/11/25 11:52:12;;;;;;;;;;;18.90;51.50;;;;;;1520503;76;1148;-59
2023/11/25 11:54:23;;;;;;;;;;;19.00;51.50;;;;;;1518743;76;772;-62
2023/11/25 11:56:29;;;;;;;;;;;18.90;51.50;;;;;;1526319;76;850;-60
2023/11/25 11:58:33;;;;;;;;;;;18.90;51.50;;;;;;1519386;76;1587;-60
2023/11/25 12:00:37;;;;;;;;;;;19.00;51.40;;;;;;1513578;76;1934;-60
2023/11/25 12:02:43;;;;;;;;;;;18.90;51.50;;;;;;1516141;76;1136;-62
2023/11/25 12:04:42;;;;;;;;;;;19.00;51.40;;;;;;1508767;76;1318;-59
2023/11/25 12:06:44;;;;;;;;;;;19.00;51.40;;;;;;1520273;76;726;-60
2023/11/25 12:08:46;;;;;;;;;;;19.00;51.30;;;;;;1512160;76;700;-60
2023/11/25 12:10:48;;;;;;;;;;;19.00;51.30;;;;;;1515321;76;738;-60